Terminal Aerodrome Forecast
Issued by NWS Charleston, SC

Home | Current Version | Previous Version | Text Only | Print | Product List | Glossary On
Versions: 1 2 3 4 5 6 7 8 9 10 11 12 13 14 15 16
000
FTUS42 KCHS 291500 AAB
TAFCHS
TAF AMD
KCHS 291503Z 2915/3012 03007KT P6SM SKC
     FM291800 VRB05KT P6SM SCT080
     FM300200 00000KT P6SM FEW060=

USA.gov is the U.S. government's official web portal to all federal, state and local government web resources and services.